ワルシャワ の空港の天気 - METARとTAF

ワルシャワ・フレデリック・ショパン空港 ( EPWA / WAW ) - ポーランド ワルシャワ
飛行場実況気象(Metar)
観測時間06/24 11:30 CEST (06/24 09:30 UTC)
風向・風速北東 5m/s
視程10km以上
天気現象
少しの雲 雲底高度 700m
気温26℃
湿度37%
気圧1025hPa
METAREPWA 240930Z 04010KT 350V080 9999 FEW023 26/10 Q1025 NOSIG
過去の天気等 Google飛行場航空写真 Wunderground天気予報

過去48時間のMETAR

飛行場予報(TAF)
発表時間: 6/24 10:30 CEST (6/24 08:30 UTC)
予報対象時間: 24日11時 CEST ~ 25日11時 CEST
風向・風速東北東 4m/s
視程10km以上
少しの雲 雲底高度 1070m
TAF EPWA 240830Z 2409/2509 07008KT 9999 FEW035